sensor_id;sensor_type;location;lat;lon;timestamp;temperature;humidity
78779;DHT22;68121;52.404;5.318;2023-09-07T00:00:45;21.60;65.30
78779;DHT22;68121;52.404;5.318;2023-09-07T00:03:13;21.60;65.50
78779;DHT22;68121;52.404;5.318;2023-09-07T00:05:39;21.50;65.60
78779;DHT22;68121;52.404;5.318;2023-09-07T00:08:05;21.50;65.70
78779;DHT22;68121;52.404;5.318;2023-09-07T00:10:34;21.50;65.80
78779;DHT22;68121;52.404;5.318;2023-09-07T00:13:02;21.50;66.00
78779;DHT22;68121;52.404;5.318;2023-09-07T00:15:29;21.50;66.20
78779;DHT22;68121;52.404;5.318;2023-09-07T00:17:55;21.50;66.20
78779;DHT22;68121;52.404;5.318;2023-09-07T00:20:22;21.50;66.20
78779;DHT22;68121;52.404;5.318;2023-09-07T00:22:49;21.50;66.30
78779;DHT22;68121;52.404;5.318;2023-09-07T00:25:16;21.50;66.20
78779;DHT22;68121;52.404;5.318;2023-09-07T00:27:42;21.50;66.30
78779;DHT22;68121;52.404;5.318;2023-09-07T00:30:08;21.50;66.20
78779;DHT22;68121;52.404;5.318;2023-09-07T00:32:37;21.50;66.20
78779;DHT22;68121;52.404;5.318;2023-09-07T00:35:04;21.50;66.20
78779;DHT22;68121;52.404;5.318;2023-09-07T00:37:31;21.50;66.20
78779;DHT22;68121;52.404;5.318;2023-09-07T00:39:57;21.50;66.10
78779;DHT22;68121;52.404;5.318;2023-09-07T00:42:24;21.60;65.90
78779;DHT22;68121;52.404;5.318;2023-09-07T00:44:50;21.60;65.80
78779;DHT22;68121;52.404;5.318;2023-09-07T00:47:16;21.60;65.80
78779;DHT22;68121;52.404;5.318;2023-09-07T00:49:42;21.50;65.70
78779;DHT22;68121;52.404;5.318;2023-09-07T00:52:09;21.50;65.70
78779;DHT22;68121;52.404;5.318;2023-09-07T00:54:38;21.50;65.70
78779;DHT22;68121;52.404;5.318;2023-09-07T00:57:06;21.50;65.70
78779;DHT22;68121;52.404;5.318;2023-09-07T00:59:33;21.50;65.60
78779;DHT22;68121;52.404;5.318;2023-09-07T01:01:59;21.50;65.60
78779;DHT22;68121;52.404;5.318;2023-09-07T01:04:26;21.50;65.60
78779;DHT22;68121;52.404;5.318;2023-09-07T01:07:22;21.50;65.60
78779;DHT22;68121;52.404;5.318;2023-09-07T01:09:54;21.50;65.70
78779;DHT22;68121;52.404;5.318;2023-09-07T01:12:21;21.50;65.60
78779;DHT22;68121;52.404;5.318;2023-09-07T01:14:48;21.50;65.70
78779;DHT22;68121;52.404;5.318;2023-09-07T01:17:14;21.50;65.70
78779;DHT22;68121;52.404;5.318;2023-09-07T01:19:41;21.50;65.70
78779;DHT22;68121;52.404;5.318;2023-09-07T01:22:09;21.40;65.70
78779;DHT22;68121;52.404;5.318;2023-09-07T01:24:37;21.40;65.90
78779;DHT22;68121;52.404;5.318;2023-09-07T01:27:04;21.40;65.90
78779;DHT22;68121;52.404;5.318;2023-09-07T01:29:31;21.40;65.90
78779;DHT22;68121;52.404;5.318;2023-09-07T01:31:57;21.30;65.90
78779;DHT22;68121;52.404;5.318;2023-09-07T01:34:24;21.40;65.90
78779;DHT22;68121;52.404;5.318;2023-09-07T01:36:50;21.30;66.00
78779;DHT22;68121;52.404;5.318;2023-09-07T01:39:17;21.30;66.00
78779;DHT22;68121;52.404;5.318;2023-09-07T01:41:43;21.30;66.00
78779;DHT22;68121;52.404;5.318;2023-09-07T01:44:09;21.20;66.10
78779;DHT22;68121;52.404;5.318;2023-09-07T01:46:35;21.10;66.20
78779;DHT22;68121;52.404;5.318;2023-09-07T01:49:04;21.10;66.30
78779;DHT22;68121;52.404;5.318;2023-09-07T01:51:30;21.10;66.30
78779;DHT22;68121;52.404;5.318;2023-09-07T01:53:56;21.00;66.40
78779;DHT22;68121;52.404;5.318;2023-09-07T01:56:22;21.00;66.40
78779;DHT22;68121;52.404;5.318;2023-09-07T01:58:48;21.10;66.40
78779;DHT22;68121;52.404;5.318;2023-09-07T02:01:29;21.10;66.30
78779;DHT22;68121;52.404;5.318;2023-09-07T02:03:56;21.10;66.30
78779;DHT22;68121;52.404;5.318;2023-09-07T02:06:22;21.10;66.30
78779;DHT22;68121;52.404;5.318;2023-09-07T02:08:48;21.10;66.30
78779;DHT22;68121;52.404;5.318;2023-09-07T02:11:14;21.10;66.30
78779;DHT22;68121;52.404;5.318;2023-09-07T02:13:45;21.00;66.50
78779;DHT22;68121;52.404;5.318;2023-09-07T02:16:11;21.00;66.50
78779;DHT22;68121;52.404;5.318;2023-09-07T02:18:37;21.00;66.50
78779;DHT22;68121;52.404;5.318;2023-09-07T02:21:06;21.00;66.50
78779;DHT22;68121;52.404;5.318;2023-09-07T02:23:32;20.90;66.50
78779;DHT22;68121;52.404;5.318;2023-09-07T02:26:01;20.90;66.60
78779;DHT22;68121;52.404;5.318;2023-09-07T02:28:27;20.90;66.70
78779;DHT22;68121;52.404;5.318;2023-09-07T02:30:53;20.80;66.80
78779;DHT22;68121;52.404;5.318;2023-09-07T02:33:19;20.80;66.80
78779;DHT22;68121;52.404;5.318;2023-09-07T02:35:47;20.70;66.90
78779;DHT22;68121;52.404;5.318;2023-09-07T02:38:14;20.70;66.90
78779;DHT22;68121;52.404;5.318;2023-09-07T02:40:43;20.60;66.90
78779;DHT22;68121;52.404;5.318;2023-09-07T02:43:10;20.60;66.90
78779;DHT22;68121;52.404;5.318;2023-09-07T02:45:36;20.60;66.90
78779;DHT22;68121;52.404;5.318;2023-09-07T02:48:03;20.50;66.80
78779;DHT22;68121;52.404;5.318;2023-09-07T02:50:31;20.50;66.90
78779;DHT22;68121;52.404;5.318;2023-09-07T02:52:57;20.50;66.90
78779;DHT22;68121;52.404;5.318;2023-09-07T02:55:24;20.50;67.00
78779;DHT22;68121;52.404;5.318;2023-09-07T02:57:50;20.40;67.00
78779;DHT22;68121;52.404;5.318;2023-09-07T03:00:16;20.30;67.00
78779;DHT22;68121;52.404;5.318;2023-09-07T03:02:43;20.30;67.10
78779;DHT22;68121;52.404;5.318;2023-09-07T03:05:10;20.30;67.10
78779;DHT22;68121;52.404;5.318;2023-09-07T03:07:36;20.30;67.10
78779;DHT22;68121;52.404;5.318;2023-09-07T03:10:02;20.20;67.20
78779;DHT22;68121;52.404;5.318;2023-09-07T03:12:29;20.10;67.20
78779;DHT22;68121;52.404;5.318;2023-09-07T03:14:55;20.10;67.20
78779;DHT22;68121;52.404;5.318;2023-09-07T03:17:22;20.10;67.30
78779;DHT22;68121;52.404;5.318;2023-09-07T03:19:48;20.00;67.30
78779;DHT22;68121;52.404;5.318;2023-09-07T03:22:14;20.00;67.30
78779;DHT22;68121;52.404;5.318;2023-09-07T03:24:40;20.00;67.40
78779;DHT22;68121;52.404;5.318;2023-09-07T03:27:06;20.00;67.40
78779;DHT22;68121;52.404;5.318;2023-09-07T03:29:32;19.90;67.50
78779;DHT22;68121;52.404;5.318;2023-09-07T03:32:02;19.90;67.50
78779;DHT22;68121;52.404;5.318;2023-09-07T03:34:28;19.90;67.50
78779;DHT22;68121;52.404;5.318;2023-09-07T03:36:54;19.90;67.70
78779;DHT22;68121;52.404;5.318;2023-09-07T03:39:20;19.80;67.70
78779;DHT22;68121;52.404;5.318;2023-09-07T03:41:50;19.80;67.70
78779;DHT22;68121;52.404;5.318;2023-09-07T03:44:16;19.70;67.70
78779;DHT22;68121;52.404;5.318;2023-09-07T03:46:42;19.70;67.70
78779;DHT22;68121;52.404;5.318;2023-09-07T03:49:08;19.70;67.70
78779;DHT22;68121;52.404;5.318;2023-09-07T03:51:34;19.70;67.70
78779;DHT22;68121;52.404;5.318;2023-09-07T03:54:00;19.70;67.80
78779;DHT22;68121;52.404;5.318;2023-09-07T03:56:26;19.70;67.80
78779;DHT22;68121;52.404;5.318;2023-09-07T03:58:52;19.70;67.90
78779;DHT22;68121;52.404;5.318;2023-09-07T04:01:18;19.70;67.90
78779;DHT22;68121;52.404;5.318;2023-09-07T04:03:44;19.70;67.90
78779;DHT22;68121;52.404;5.318;2023-09-07T04:06:10;19.70;68.00
78779;DHT22;68121;52.404;5.318;2023-09-07T04:08:37;19.70;68.00
78779;DHT22;68121;52.404;5.318;2023-09-07T04:11:04;19.70;68.00
78779;DHT22;68121;52.404;5.318;2023-09-07T04:13:35;19.70;68.00
78779;DHT22;68121;52.404;5.318;2023-09-07T04:16:01;19.60;68.00
78779;DHT22;68121;52.404;5.318;2023-09-07T04:18:27;19.60;68.00
78779;DHT22;68121;52.404;5.318;2023-09-07T04:20:56;19.50;68.00
78779;DHT22;68121;52.404;5.318;2023-09-07T04:23:29;19.50;68.00
78779;DHT22;68121;52.404;5.318;2023-09-07T04:26:07;19.50;68.00
78779;DHT22;68121;52.404;5.318;2023-09-07T04:28:33;19.50;68.10
78779;DHT22;68121;52.404;5.318;2023-09-07T04:31:00;19.50;68.10
78779;DHT22;68121;52.404;5.318;2023-09-07T04:33:26;19.50;68.20
78779;DHT22;68121;52.404;5.318;2023-09-07T04:35:52;19.50;68.20
78779;DHT22;68121;52.404;5.318;2023-09-07T04:38:18;19.40;68.30
78779;DHT22;68121;52.404;5.318;2023-09-07T04:40:44;19.40;68.50
78779;DHT22;68121;52.404;5.318;2023-09-07T04:43:12;19.30;68.60
78779;DHT22;68121;52.404;5.318;2023-09-07T04:45:46;19.30;68.60
78779;DHT22;68121;52.404;5.318;2023-09-07T04:48:12;19.30;68.60
78779;DHT22;68121;52.404;5.318;2023-09-07T04:50:38;19.30;68.50
78779;DHT22;68121;52.404;5.318;2023-09-07T04:53:04;19.30;68.50
78779;DHT22;68121;52.404;5.318;2023-09-07T04:55:30;19.40;68.50
78779;DHT22;68121;52.404;5.318;2023-09-07T04:57:56;19.40;68.50
78779;DHT22;68121;52.404;5.318;2023-09-07T05:00:22;19.40;68.60
78779;DHT22;68121;52.404;5.318;2023-09-07T05:02:48;19.30;68.50
78779;DHT22;68121;52.404;5.318;2023-09-07T05:05:14;19.30;68.60
78779;DHT22;68121;52.404;5.318;2023-09-07T05:07:40;19.30;68.60
78779;DHT22;68121;52.404;5.318;2023-09-07T05:10:07;19.30;68.60
78779;DHT22;68121;52.404;5.318;2023-09-07T05:12:34;19.20;68.70
78779;DHT22;68121;52.404;5.318;2023-09-07T05:15:00;19.20;68.70
78779;DHT22;68121;52.404;5.318;2023-09-07T05:17:26;19.20;68.60
78779;DHT22;68121;52.404;5.318;2023-09-07T05:19:52;19.20;68.60
78779;DHT22;68121;52.404;5.318;2023-09-07T05:22:19;19.10;68.60
78779;DHT22;68121;52.404;5.318;2023-09-07T05:24:48;19.10;68.60
78779;DHT22;68121;52.404;5.318;2023-09-07T05:27:14;19.10;68.60
78779;DHT22;68121;52.404;5.318;2023-09-07T05:29:40;19.00;68.70
78779;DHT22;68121;52.404;5.318;2023-09-07T05:32:06;19.00;68.70
78779;DHT22;68121;52.404;5.318;2023-09-07T05:34:32;19.00;68.70
78779;DHT22;68121;52.404;5.318;2023-09-07T05:36:58;19.00;68.80
78779;DHT22;68121;52.404;5.318;2023-09-07T05:39:26;19.00;68.90
78779;DHT22;68121;52.404;5.318;2023-09-07T05:41:53;18.90;69.10
78779;DHT22;68121;52.404;5.318;2023-09-07T05:44:19;19.00;69.20
78779;DHT22;68121;52.404;5.318;2023-09-07T05:46:45;19.00;69.30
78779;DHT22;68121;52.404;5.318;2023-09-07T05:49:11;19.10;69.20
78779;DHT22;68121;52.404;5.318;2023-09-07T05:51:37;19.20;69.10
78779;DHT22;68121;52.404;5.318;2023-09-07T05:54:03;19.30;69.00
78779;DHT22;68121;52.404;5.318;2023-09-07T05:56:29;19.40;69.00
78779;DHT22;68121;52.404;5.318;2023-09-07T05:58:56;19.50;69.00
78779;DHT22;68121;52.404;5.318;2023-09-07T06:01:22;19.50;69.00
78779;DHT22;68121;52.404;5.318;2023-09-07T06:03:48;19.60;68.90
78779;DHT22;68121;52.404;5.318;2023-09-07T06:06:14;19.70;68.90
78779;DHT22;68121;52.404;5.318;2023-09-07T06:08:40;19.70;68.90
78779;DHT22;68121;52.404;5.318;2023-09-07T06:11:06;19.80;68.90
78779;DHT22;68121;52.404;5.318;2023-09-07T06:13:32;19.90;68.80
78779;DHT22;68121;52.404;5.318;2023-09-07T06:15:58;20.00;68.70
78779;DHT22;68121;52.404;5.318;2023-09-07T06:18:26;20.10;68.60
78779;DHT22;68121;52.404;5.318;2023-09-07T06:20:52;20.20;68.60
78779;DHT22;68121;52.404;5.318;2023-09-07T06:23:18;20.30;68.50
78779;DHT22;68121;52.404;5.318;2023-09-07T06:25:44;20.30;68.40
78779;DHT22;68121;52.404;5.318;2023-09-07T06:28:11;20.50;68.30
78779;DHT22;68121;52.404;5.318;2023-09-07T06:30:37;20.50;68.20
78779;DHT22;68121;52.404;5.318;2023-09-07T06:33:04;20.60;68.00
78779;DHT22;68121;52.404;5.318;2023-09-07T06:35:30;20.70;67.80
78779;DHT22;68121;52.404;5.318;2023-09-07T06:37:56;20.80;67.80
78779;DHT22;68121;52.404;5.318;2023-09-07T06:40:23;20.90;67.60
78779;DHT22;68121;52.404;5.318;2023-09-07T06:42:49;20.90;67.50
78779;DHT22;68121;52.404;5.318;2023-09-07T06:45:15;21.10;67.50
78779;DHT22;68121;52.404;5.318;2023-09-07T06:47:42;21.10;67.30
78779;DHT22;68121;52.404;5.318;2023-09-07T06:50:09;21.30;67.20
78779;DHT22;68121;52.404;5.318;2023-09-07T06:52:36;21.40;67.10
78779;DHT22;68121;52.404;5.318;2023-09-07T06:55:02;21.50;67.00
78779;DHT22;68121;52.404;5.318;2023-09-07T06:57:28;21.50;66.80
78779;DHT22;68121;52.404;5.318;2023-09-07T06:59:54;21.70;66.70
78779;DHT22;68121;52.404;5.318;2023-09-07T07:02:20;21.70;66.50
78779;DHT22;68121;52.404;5.318;2023-09-07T07:04:46;21.90;66.40
78779;DHT22;68121;52.404;5.318;2023-09-07T07:07:12;21.90;66.10
78779;DHT22;68121;52.404;5.318;2023-09-07T07:09:38;22.10;66.00
78779;DHT22;68121;52.404;5.318;2023-09-07T07:12:04;22.30;65.80
78779;DHT22;68121;52.404;5.318;2023-09-07T07:14:31;22.50;65.60
78779;DHT22;68121;52.404;5.318;2023-09-07T07:16:57;22.50;65.30
78779;DHT22;68121;52.404;5.318;2023-09-07T07:19:23;22.60;65.10
78779;DHT22;68121;52.404;5.318;2023-09-07T07:21:50;22.70;65.00
78779;DHT22;68121;52.404;5.318;2023-09-07T07:24:16;22.80;64.90
78779;DHT22;68121;52.404;5.318;2023-09-07T07:26:43;22.90;64.70
78779;DHT22;68121;52.404;5.318;2023-09-07T07:29:09;23.00;64.40
78779;DHT22;68121;52.404;5.318;2023-09-07T07:31:35;23.20;64.20
78779;DHT22;68121;52.404;5.318;2023-09-07T07:34:02;23.30;64.10
78779;DHT22;68121;52.404;5.318;2023-09-07T07:36:28;23.40;63.70
78779;DHT22;68121;52.404;5.318;2023-09-07T07:38:54;23.50;63.40
78779;DHT22;68121;52.404;5.318;2023-09-07T07:41:20;23.60;63.30
78779;DHT22;68121;52.404;5.318;2023-09-07T07:43:46;23.60;63.20
78779;DHT22;68121;52.404;5.318;2023-09-07T07:46:12;23.70;63.20
78779;DHT22;68121;52.404;5.318;2023-09-07T07:48:41;23.80;62.90
78779;DHT22;68121;52.404;5.318;2023-09-07T07:51:07;23.90;62.70
78779;DHT22;68121;52.404;5.318;2023-09-07T07:53:34;24.00;62.70
78779;DHT22;68121;52.404;5.318;2023-09-07T07:56:00;24.00;62.60
78779;DHT22;68121;52.404;5.318;2023-09-07T07:58:27;24.10;62.50
78779;DHT22;68121;52.404;5.318;2023-09-07T08:00:56;24.20;62.50
78779;DHT22;68121;52.404;5.318;2023-09-07T08:03:24;24.30;62.40
78779;DHT22;68121;52.404;5.318;2023-09-07T08:05:50;24.40;62.10
78779;DHT22;68121;52.404;5.318;2023-09-07T08:08:16;24.60;61.90
78779;DHT22;68121;52.404;5.318;2023-09-07T08:10:45;24.70;61.70
78779;DHT22;68121;52.404;5.318;2023-09-07T08:13:12;25.00;61.40
78779;DHT22;68121;52.404;5.318;2023-09-07T08:15:38;25.10;61.20
78779;DHT22;68121;52.404;5.318;2023-09-07T08:18:04;25.30;61.10
78779;DHT22;68121;52.404;5.318;2023-09-07T08:20:32;25.50;60.90
78779;DHT22;68121;52.404;5.318;2023-09-07T08:22:58;25.70;60.70
78779;DHT22;68121;52.404;5.318;2023-09-07T08:25:24;25.80;60.40
78779;DHT22;68121;52.404;5.318;2023-09-07T08:27:51;26.00;60.20
78779;DHT22;68121;52.404;5.318;2023-09-07T08:30:21;26.10;60.00
78779;DHT22;68121;52.404;5.318;2023-09-07T08:32:50;26.40;59.70
78779;DHT22;68121;52.404;5.318;2023-09-07T08:35:17;26.40;59.30
78779;DHT22;68121;52.404;5.318;2023-09-07T08:37:43;26.50;59.20
78779;DHT22;68121;52.404;5.318;2023-09-07T08:40:09;26.50;59.10
78779;DHT22;68121;52.404;5.318;2023-09-07T08:42:37;26.70;59.00
78779;DHT22;68121;52.404;5.318;2023-09-07T08:45:04;26.80;58.90
78779;DHT22;68121;52.404;5.318;2023-09-07T08:47:34;26.90;58.50
78779;DHT22;68121;52.404;5.318;2023-09-07T08:50:02;26.90;58.30
78779;DHT22;68121;52.404;5.318;2023-09-07T08:52:30;27.10;58.30
78779;DHT22;68121;52.404;5.318;2023-09-07T08:54:56;27.20;58.20
78779;DHT22;68121;52.404;5.318;2023-09-07T08:57:25;27.40;57.90
78779;DHT22;68121;52.404;5.318;2023-09-07T08:59:53;27.50;57.80
78779;DHT22;68121;52.404;5.318;2023-09-07T09:02:19;27.60;57.60
78779;DHT22;68121;52.404;5.318;2023-09-07T09:04:46;27.70;57.60
78779;DHT22;68121;52.404;5.318;2023-09-07T09:07:12;27.90;57.40
78779;DHT22;68121;52.404;5.318;2023-09-07T09:09:39;28.00;57.10
78779;DHT22;68121;52.404;5.318;2023-09-07T09:12:12;28.00;56.70
78779;DHT22;68121;52.404;5.318;2023-09-07T09:14:42;27.80;56.40
78779;DHT22;68121;52.404;5.318;2023-09-07T09:17:14;27.70;56.40
78779;DHT22;68121;52.404;5.318;2023-09-07T09:19:41;27.50;56.50
78779;DHT22;68121;52.404;5.318;2023-09-07T09:22:11;27.60;56.70
78779;DHT22;68121;52.404;5.318;2023-09-07T09:24:38;27.90;56.60
78779;DHT22;68121;52.404;5.318;2023-09-07T09:27:04;28.10;56.40
78779;DHT22;68121;52.404;5.318;2023-09-07T09:29:33;28.40;56.20
78779;DHT22;68121;52.404;5.318;2023-09-07T09:32:02;28.60;55.80
78779;DHT22;68121;52.404;5.318;2023-09-07T09:34:37;28.70;55.40
78779;DHT22;68121;52.404;5.318;2023-09-07T09:37:04;28.70;55.30
78779;DHT22;68121;52.404;5.318;2023-09-07T09:39:30;28.70;55.40
78779;DHT22;68121;52.404;5.318;2023-09-07T09:41:56;28.80;55.50
78779;DHT22;68121;52.404;5.318;2023-09-07T09:44:23;29.00;55.30
78779;DHT22;68121;52.404;5.318;2023-09-07T09:46:53;29.20;55.10
78779;DHT22;68121;52.404;5.318;2023-09-07T09:49:21;29.30;54.70
78779;DHT22;68121;52.404;5.318;2023-09-07T09:51:51;29.30;54.50
78779;DHT22;68121;52.404;5.318;2023-09-07T09:54:18;29.30;54.30
78779;DHT22;68121;52.404;5.318;2023-09-07T09:56:44;29.20;54.20
78779;DHT22;68121;52.404;5.318;2023-09-07T09:59:13;29.20;54.30
78779;DHT22;68121;52.404;5.318;2023-09-07T10:01:47;29.20;54.20
78779;DHT22;68121;52.404;5.318;2023-09-07T10:04:16;29.30;54.00
78779;DHT22;68121;52.404;5.318;2023-09-07T10:06:59;29.40;54.00
78779;DHT22;68121;52.404;5.318;2023-09-07T10:09:34;29.50;53.70
78779;DHT22;68121;52.404;5.318;2023-09-07T10:12:02;29.60;53.70
78779;DHT22;68121;52.404;5.318;2023-09-07T10:14:40;29.60;53.70
78779;DHT22;68121;52.404;5.318;2023-09-07T10:17:07;29.70;53.40
78779;DHT22;68121;52.404;5.318;2023-09-07T10:19:34;29.80;53.30
78779;DHT22;68121;52.404;5.318;2023-09-07T10:22:02;29.90;53.20
78779;DHT22;68121;52.404;5.318;2023-09-07T10:24:31;30.00;53.30
78779;DHT22;68121;52.404;5.318;2023-09-07T10:27:08;30.10;53.00
78779;DHT22;68121;52.404;5.318;2023-09-07T10:29:52;30.30;52.90
78779;DHT22;68121;52.404;5.318;2023-09-07T10:32:20;30.50;52.60
78779;DHT22;68121;52.404;5.318;2023-09-07T10:34:47;30.50;52.70
78779;DHT22;68121;52.404;5.318;2023-09-07T10:37:14;30.70;52.50
78779;DHT22;68121;52.404;5.318;2023-09-07T10:39:43;30.80;52.30
78779;DHT22;68121;52.404;5.318;2023-09-07T10:42:20;30.80;52.10
78779;DHT22;68121;52.404;5.318;2023-09-07T10:44:47;30.90;52.10
78779;DHT22;68121;52.404;5.318;2023-09-07T10:47:13;31.00;52.10
78779;DHT22;68121;52.404;5.318;2023-09-07T10:49:39;31.10;51.70
78779;DHT22;68121;52.404;5.318;2023-09-07T10:52:06;31.20;51.50
78779;DHT22;68121;52.404;5.318;2023-09-07T10:54:32;31.30;51.30
78779;DHT22;68121;52.404;5.318;2023-09-07T10:57:10;31.50;51.00
78779;DHT22;68121;52.404;5.318;2023-09-07T10:59:36;31.60;50.60
78779;DHT22;68121;52.404;5.318;2023-09-07T11:02:06;31.70;50.50
78779;DHT22;68121;52.404;5.318;2023-09-07T11:04:33;31.70;50.20
78779;DHT22;68121;52.404;5.318;2023-09-07T11:07:00;31.70;50.10
78779;DHT22;68121;52.404;5.318;2023-09-07T11:09:26;31.70;50.30
78779;DHT22;68121;52.404;5.318;2023-09-07T11:11:52;31.80;50.40
78779;DHT22;68121;52.404;5.318;2023-09-07T11:14:21;31.90;50.30
78779;DHT22;68121;52.404;5.318;2023-09-07T11:16:48;32.20;50.00
78779;DHT22;68121;52.404;5.318;2023-09-07T11:19:14;32.30;49.70
78779;DHT22;68121;52.404;5.318;2023-09-07T11:21:44;32.30;49.40
78779;DHT22;68121;52.404;5.318;2023-09-07T11:24:10;32.50;49.40
78779;DHT22;68121;52.404;5.318;2023-09-07T11:26:44;32.60;49.20
78779;DHT22;68121;52.404;5.318;2023-09-07T11:29:16;32.80;48.80
78779;DHT22;68121;52.404;5.318;2023-09-07T11:31:44;33.00;48.60
78779;DHT22;68121;52.404;5.318;2023-09-07T11:34:14;33.10;48.50
78779;DHT22;68121;52.404;5.318;2023-09-07T11:36:41;33.00;48.50
78779;DHT22;68121;52.404;5.318;2023-09-07T11:39:08;33.10;48.40
78779;DHT22;68121;52.404;5.318;2023-09-07T11:41:44;33.20;48.30
78779;DHT22;68121;52.404;5.318;2023-09-07T11:44:11;33.30;48.00
78779;DHT22;68121;52.404;5.318;2023-09-07T11:46:37;33.30;48.00
78779;DHT22;68121;52.404;5.318;2023-09-07T11:49:04;33.40;47.90
78779;DHT22;68121;52.404;5.318;2023-09-07T11:51:34;33.60;47.70
78779;DHT22;68121;52.404;5.318;2023-09-07T11:54:04;33.50;47.40
78779;DHT22;68121;52.404;5.318;2023-09-07T11:56:30;33.50;47.30
78779;DHT22;68121;52.404;5.318;2023-09-07T11:58:56;33.60;46.70
78779;DHT22;68121;52.404;5.318;2023-09-07T12:01:23;33.50;45.90
78779;DHT22;68121;52.404;5.318;2023-09-07T12:03:49;33.30;45.30
78779;DHT22;68121;52.404;5.318;2023-09-07T12:06:15;33.30;45.10
78779;DHT22;68121;52.404;5.318;2023-09-07T12:08:42;33.20;44.90
78779;DHT22;68121;52.404;5.318;2023-09-07T12:11:23;33.10;44.60
78779;DHT22;68121;52.404;5.318;2023-09-07T12:13:49;33.00;44.60
78779;DHT22;68121;52.404;5.318;2023-09-07T12:16:15;33.00;44.30
78779;DHT22;68121;52.404;5.318;2023-09-07T12:18:41;32.80;44.30
78779;DHT22;68121;52.404;5.318;2023-09-07T12:21:07;32.80;44.30
78779;DHT22;68121;52.404;5.318;2023-09-07T12:23:34;32.90;44.20
78779;DHT22;68121;52.404;5.318;2023-09-07T12:26:01;32.80;44.00
78779;DHT22;68121;52.404;5.318;2023-09-07T12:28:27;32.90;43.90
78779;DHT22;68121;52.404;5.318;2023-09-07T12:30:53;32.80;43.80
78779;DHT22;68121;52.404;5.318;2023-09-07T12:33:19;32.80;43.80
78779;DHT22;68121;52.404;5.318;2023-09-07T12:35:45;32.80;44.00
78779;DHT22;68121;52.404;5.318;2023-09-07T12:38:11;32.80;44.10
78779;DHT22;68121;52.404;5.318;2023-09-07T12:40:43;33.00;44.10
78779;DHT22;68121;52.404;5.318;2023-09-07T12:43:10;33.00;44.00
78779;DHT22;68121;52.404;5.318;2023-09-07T12:45:36;33.00;43.90
78779;DHT22;68121;52.404;5.318;2023-09-07T12:48:02;33.00;43.80
78779;DHT22;68121;52.404;5.318;2023-09-07T12:50:28;33.00;43.80
78779;DHT22;68121;52.404;5.318;2023-09-07T12:52:54;33.00;43.70
78779;DHT22;68121;52.404;5.318;2023-09-07T12:55:20;33.00;43.30
78779;DHT22;68121;52.404;5.318;2023-09-07T12:57:47;33.00;43.40
78779;DHT22;68121;52.404;5.318;2023-09-07T13:00:13;33.00;43.40
78779;DHT22;68121;52.404;5.318;2023-09-07T13:02:39;33.10;43.30
78779;DHT22;68121;52.404;5.318;2023-09-07T13:05:05;33.10;43.30
78779;DHT22;68121;52.404;5.318;2023-09-07T13:07:32;33.10;43.20
78779;DHT22;68121;52.404;5.318;2023-09-07T13:09:58;33.10;43.20
78779;DHT22;68121;52.404;5.318;2023-09-07T13:12:27;33.10;43.20
78779;DHT22;68121;52.404;5.318;2023-09-07T13:14:53;33.00;43.10
78779;DHT22;68121;52.404;5.318;2023-09-07T13:17:19;32.90;43.30
78779;DHT22;68121;52.404;5.318;2023-09-07T13:19:45;32.80;43.60
78779;DHT22;68121;52.404;5.318;2023-09-07T13:22:14;33.00;43.80
78779;DHT22;68121;52.404;5.318;2023-09-07T13:24:40;33.10;43.80
78779;DHT22;68121;52.404;5.318;2023-09-07T13:27:06;33.20;43.70
78779;DHT22;68121;52.404;5.318;2023-09-07T13:29:32;33.30;43.60
78779;DHT22;68121;52.404;5.318;2023-09-07T13:31:59;33.30;43.60
78779;DHT22;68121;52.404;5.318;2023-09-07T13:34:25;33.20;43.90
78779;DHT22;68121;52.404;5.318;2023-09-07T13:36:52;33.10;44.00
78779;DHT22;68121;52.404;5.318;2023-09-07T13:39:18;33.10;44.20
78779;DHT22;68121;52.404;5.318;2023-09-07T13:41:44;33.10;44.20
78779;DHT22;68121;52.404;5.318;2023-09-07T13:44:11;33.10;44.30
78779;DHT22;68121;52.404;5.318;2023-09-07T13:46:37;33.10;44.30
78779;DHT22;68121;52.404;5.318;2023-09-07T13:49:03;33.20;44.50
78779;DHT22;68121;52.404;5.318;2023-09-07T13:51:29;33.20;44.40
78779;DHT22;68121;52.404;5.318;2023-09-07T13:54:01;33.20;44.20
78779;DHT22;68121;52.404;5.318;2023-09-07T13:56:27;33.10;44.30
78779;DHT22;68121;52.404;5.318;2023-09-07T13:58:53;33.10;44.40
78779;DHT22;68121;52.404;5.318;2023-09-07T14:01:19;33.20;44.50
78779;DHT22;68121;52.404;5.318;2023-09-07T14:03:45;33.10;44.50
78779;DHT22;68121;52.404;5.318;2023-09-07T14:06:11;33.10;44.60
78779;DHT22;68121;52.404;5.318;2023-09-07T14:08:37;33.10;44.80
78779;DHT22;68121;52.404;5.318;2023-09-07T14:11:03;33.00;44.80
78779;DHT22;68121;52.404;5.318;2023-09-07T14:13:31;33.00;44.90
78779;DHT22;68121;52.404;5.318;2023-09-07T14:16:00;33.00;44.70
78779;DHT22;68121;52.404;5.318;2023-09-07T14:18:26;33.00;44.60
78779;DHT22;68121;52.404;5.318;2023-09-07T14:20:52;33.00;44.60
78779;DHT22;68121;52.404;5.318;2023-09-07T14:23:18;33.00;44.70
78779;DHT22;68121;52.404;5.318;2023-09-07T14:25:46;33.00;44.60
78779;DHT22;68121;52.404;5.318;2023-09-07T14:28:14;33.00;44.30
78779;DHT22;68121;52.404;5.318;2023-09-07T14:30:40;32.80;44.20
78779;DHT22;68121;52.404;5.318;2023-09-07T14:33:06;32.80;44.20
78779;DHT22;68121;52.404;5.318;2023-09-07T14:35:32;32.60;44.10
78779;DHT22;68121;52.404;5.318;2023-09-07T14:37:58;32.60;44.40
78779;DHT22;68121;52.404;5.318;2023-09-07T14:40:24;32.60;44.40
78779;DHT22;68121;52.404;5.318;2023-09-07T14:42:50;32.50;44.30
78779;DHT22;68121;52.404;5.318;2023-09-07T14:45:17;32.40;44.30
78779;DHT22;68121;52.404;5.318;2023-09-07T14:47:43;32.30;44.60
78779;DHT22;68121;52.404;5.318;2023-09-07T14:50:09;32.30;44.90
78779;DHT22;68121;52.404;5.318;2023-09-07T14:52:35;32.40;44.80
78779;DHT22;68121;52.404;5.318;2023-09-07T14:55:07;32.40;44.70
78779;DHT22;68121;52.404;5.318;2023-09-07T14:57:34;32.40;44.60
78779;DHT22;68121;52.404;5.318;2023-09-07T15:00:00;32.40;44.50
78779;DHT22;68121;52.404;5.318;2023-09-07T15:02:26;32.20;44.30
78779;DHT22;68121;52.404;5.318;2023-09-07T15:04:52;32.10;44.20
78779;DHT22;68121;52.404;5.318;2023-09-07T15:07:18;31.90;44.30
78779;DHT22;68121;52.404;5.318;2023-09-07T15:09:45;31.80;44.40
78779;DHT22;68121;52.404;5.318;2023-09-07T15:12:11;31.80;44.50
78779;DHT22;68121;52.404;5.318;2023-09-07T15:14:37;31.70;44.70
78779;DHT22;68121;52.404;5.318;2023-09-07T15:17:04;31.60;44.80
78779;DHT22;68121;52.404;5.318;2023-09-07T15:19:30;31.50;44.90
78779;DHT22;68121;52.404;5.318;2023-09-07T15:21:56;31.40;45.10
78779;DHT22;68121;52.404;5.318;2023-09-07T15:24:22;31.30;45.10
78779;DHT22;68121;52.404;5.318;2023-09-07T15:26:48;31.20;45.30
78779;DHT22;68121;52.404;5.318;2023-09-07T15:29:14;31.20;45.40